createdAt,value
2018-05-12T00:01:52.840Z,7.70
2018-05-12T00:04:19.152Z,7.90
2018-05-12T00:06:46.178Z,7.90
2018-05-12T00:09:12.461Z,7.80
2018-05-12T00:11:38.749Z,7.90
2018-05-12T00:14:05.052Z,8.00
2018-05-12T00:16:31.321Z,8.00
2018-05-12T00:18:57.609Z,8.10
2018-05-12T00:21:23.863Z,8.20
2018-05-12T00:23:50.117Z,8.30
2018-05-12T00:26:16.383Z,8.50
2018-05-12T00:28:43.416Z,9.10
2018-05-12T00:31:09.750Z,9.00
2018-05-12T00:33:36.025Z,9.20
2018-05-12T00:36:02.300Z,9.20
2018-05-12T00:38:28.571Z,9.40
2018-05-12T00:40:54.866Z,9.40
2018-05-12T00:43:21.140Z,9.30
2018-05-12T00:45:48.144Z,9.20
2018-05-12T00:48:14.396Z,9.10
2018-05-12T00:50:40.639Z,9.30
2018-05-12T00:53:06.966Z,9.20
2018-05-12T00:55:33.253Z,9.20
2018-05-12T00:57:59.613Z,9.10
2018-05-12T01:00:25.963Z,9.10
2018-05-12T01:02:52.261Z,9.10
2018-05-12T01:05:18.553Z,9.40
2018-05-12T01:07:44.845Z,9.50
2018-05-12T01:10:11.167Z,9.40
2018-05-12T01:12:38.272Z,9.30
2018-05-12T01:15:04.615Z,9.20
2018-05-12T01:17:30.930Z,9.20
2018-05-12T01:19:57.289Z,9.20
2018-05-12T01:22:23.587Z,9.30
2018-05-12T01:24:49.881Z,9.30
2018-05-12T01:27:16.173Z,9.30
2018-05-12T01:29:42.766Z,9.30
2018-05-12T01:32:09.805Z,9.70
2018-05-12T01:34:36.814Z,9.90
2018-05-12T01:37:03.084Z,9.90
2018-05-12T01:39:29.366Z,10.10
2018-05-12T01:41:55.667Z,10.30
2018-05-12T01:44:21.949Z,10.30
2018-05-12T01:46:48.265Z,10.40
2018-05-12T01:49:14.540Z,10.40
2018-05-12T01:51:40.844Z,10.30
2018-05-12T01:54:07.153Z,10.30
2018-05-12T01:56:33.449Z,10.30
2018-05-12T01:58:59.714Z,10.30
2018-05-12T02:01:25.989Z,10.30
2018-05-12T02:03:52.247Z,10.40
2018-05-12T02:06:18.548Z,10.40
2018-05-12T02:08:44.834Z,10.50
2018-05-12T02:11:11.131Z,10.50
2018-05-12T02:13:37.427Z,10.50
2018-05-12T02:16:04.442Z,10.40
2018-05-12T02:18:30.807Z,10.30
2018-05-12T02:20:57.109Z,10.20
2018-05-12T02:23:23.422Z,10.20
2018-05-12T02:25:49.733Z,10.20
2018-05-12T02:28:16.106Z,10.30
2018-05-12T02:30:42.516Z,10.30
2018-05-12T02:33:09.558Z,10.20
2018-05-12T02:35:35.917Z,10.20
2018-05-12T02:38:02.304Z,10.20
2018-05-12T02:40:28.957Z,10.20
2018-05-12T02:42:56.058Z,10.10
2018-05-12T02:45:22.357Z,10.10
2018-05-12T02:47:48.713Z,10.10
2018-05-12T02:50:15.067Z,10.20
2018-05-12T02:52:41.442Z,10.30
2018-05-12T02:55:07.834Z,10.40
2018-05-12T02:57:34.192Z,10.40
2018-05-12T03:00:00.562Z,10.30
2018-05-12T03:02:27.661Z,10.30
2018-05-12T03:04:53.991Z,10.20
2018-05-12T03:07:20.395Z,10.20
2018-05-12T03:09:46.758Z,10.30
2018-05-12T03:12:13.089Z,10.50
2018-05-12T03:14:39.441Z,10.60
2018-05-12T03:17:05.764Z,10.50
2018-05-12T03:19:32.163Z,10.50
2018-05-12T03:21:58.502Z,10.40
2018-05-12T03:24:25.562Z,10.50
2018-05-12T03:26:51.951Z,10.40
2018-05-12T03:29:18.294Z,10.50
2018-05-12T03:31:44.657Z,10.60
2018-05-12T03:34:11.047Z,10.60
2018-05-12T03:36:37.427Z,10.70
2018-05-12T03:39:03.788Z,10.80
2018-05-12T03:41:30.125Z,11.00
2018-05-12T03:43:56.409Z,11.20
2018-05-12T03:46:22.726Z,11.30
2018-05-12T03:48:49.722Z,11.30
2018-05-12T03:51:15.993Z,11.20
2018-05-12T03:53:42.296Z,11.30
2018-05-12T03:56:08.658Z,11.20
2018-05-12T03:58:35.006Z,11.20
2018-05-12T04:01:02.056Z,11.40
2018-05-12T04:03:28.346Z,11.40
2018-05-12T04:06:06.751Z,11.50
2018-05-12T04:08:45.397Z,11.50
2018-05-12T04:11:25.588Z,11.40
2018-05-12T04:13:52.639Z,11.40
2018-05-12T04:16:18.989Z,11.40
2018-05-12T04:18:45.383Z,11.40
2018-05-12T04:21:11.719Z,11.40
2018-05-12T04:23:38.854Z,11.20
2018-05-12T04:26:05.314Z,11.20
2018-05-12T04:28:31.704Z,11.20
2018-05-12T04:30:58.069Z,11.20
2018-05-12T04:33:24.506Z,11.20
2018-05-12T04:35:51.646Z,11.30
2018-05-12T04:38:18.222Z,11.20
2018-05-12T04:40:45.356Z,11.80
2018-05-12T04:43:11.637Z,11.80
2018-05-12T04:45:37.935Z,12.00
2018-05-12T04:48:04.284Z,11.90
2018-05-12T04:50:30.786Z,11.70
2018-05-12T04:52:57.074Z,11.70
2018-05-12T04:55:23.396Z,12.00
2018-05-12T04:57:49.719Z,12.30
2018-05-12T05:00:16.098Z,12.50
2018-05-12T05:02:43.151Z,12.80
2018-05-12T05:05:09.492Z,12.70
2018-05-12T05:07:36.556Z,12.90
2018-05-12T05:10:02.962Z,12.80
2018-05-12T05:12:29.452Z,12.90
2018-05-12T05:14:55.813Z,13.00
2018-05-12T05:17:22.155Z,13.20
2018-05-12T05:19:48.522Z,13.40
2018-05-12T05:22:15.000Z,13.60
2018-05-12T05:24:43.382Z,13.80
2018-05-12T05:27:11.285Z,13.80
2018-05-12T05:29:37.653Z,14.00
2018-05-12T05:32:04.247Z,14.20
2018-05-12T05:34:30.586Z,14.20
2018-05-12T05:36:57.372Z,14.10
2018-05-12T05:39:23.797Z,14.20
2018-05-12T05:41:52.463Z,14.30
2018-05-12T05:44:18.973Z,14.30
2018-05-12T05:46:46.061Z,14.60
2018-05-12T05:49:13.384Z,15.00
2018-05-12T05:51:40.847Z,15.00
2018-05-12T05:54:07.289Z,15.20
2018-05-12T05:56:34.604Z,15.30
2018-05-12T05:59:01.788Z,15.60
2018-05-12T06:01:28.551Z,15.70
2018-05-12T06:03:55.265Z,15.30
2018-05-12T06:06:22.143Z,15.60
2018-05-12T06:08:48.591Z,15.80
2018-05-12T06:11:15.854Z,16.10
2018-05-12T06:13:43.211Z,15.90
2018-05-12T06:21:27.419Z,17.50
2018-05-12T06:24:01.672Z,17.70
2018-05-12T07:01:59.275Z,19.10
2018-05-12T07:04:25.633Z,19.10
2018-05-12T07:06:54.046Z,18.70
2018-05-12T07:09:20.581Z,18.70
2018-05-12T07:11:47.790Z,18.20
2018-05-12T07:14:14.469Z,18.10
2018-05-12T07:16:48.537Z,18.60
2018-05-12T07:19:42.469Z,18.50
2018-05-12T07:22:08.953Z,19.00
2018-05-12T07:24:35.476Z,19.00
2018-05-12T07:27:01.795Z,18.90
2018-05-12T07:29:28.330Z,18.60
2018-05-12T07:34:56.090Z,18.60
2018-05-12T07:37:22.887Z,18.60
2018-05-12T07:39:49.183Z,18.70
2018-05-12T07:42:17.566Z,18.70
2018-05-12T07:48:13.832Z,18.70
2018-05-12T07:50:54.549Z,18.30
2018-05-12T07:59:42.421Z,19.00
2018-05-12T08:02:36.927Z,19.10
2018-05-12T08:05:09.541Z,18.80
2018-05-12T08:07:36.777Z,19.00
2018-05-12T08:28:49.521Z,19.40
2018-05-12T08:31:16.030Z,19.40
2018-05-12T08:33:44.168Z,19.20
2018-05-12T08:36:10.504Z,19.10
2018-05-12T08:38:36.834Z,19.00
2018-05-12T08:41:03.302Z,18.90
2018-05-12T08:43:30.638Z,19.00
2018-05-12T08:45:57.946Z,19.00
2018-05-12T08:48:25.089Z,18.70
2018-05-12T08:50:53.299Z,18.60
2018-05-12T08:53:19.676Z,18.50
2018-05-12T08:55:47.236Z,18.80
2018-05-12T08:58:13.796Z,18.70
2018-05-12T09:00:40.467Z,18.90
2018-05-12T09:03:06.788Z,19.10
2018-05-12T09:05:33.169Z,19.20
2018-05-12T09:07:59.629Z,19.10
2018-05-12T09:10:25.947Z,19.10
2018-05-12T09:12:52.319Z,19.20
2018-05-12T09:15:18.651Z,19.10
2018-05-12T09:17:46.415Z,19.10
2018-05-12T09:20:12.744Z,19.30
2018-05-12T09:22:39.344Z,19.30
2018-05-12T09:25:06.165Z,19.70
2018-05-12T09:27:32.818Z,20.00
2018-05-12T09:30:00.337Z,20.60
2018-05-12T09:32:29.004Z,20.60
2018-05-12T09:34:55.502Z,20.50
2018-05-12T09:37:22.568Z,21.00
2018-05-12T09:39:50.605Z,20.70
2018-05-12T09:48:15.446Z,20.80
2018-05-12T09:50:48.389Z,21.40
2018-05-12T09:53:14.839Z,21.30
2018-05-12T10:04:39.555Z,21.10
2018-05-12T10:16:15.081Z,22.00
2018-05-12T10:18:41.281Z,22.10
2018-05-12T10:21:08.271Z,22.30
2018-05-12T10:23:34.457Z,22.20
2018-05-12T10:26:00.657Z,22.30
2018-05-12T10:28:26.883Z,22.40
2018-05-12T10:30:53.110Z,22.20
2018-05-12T10:33:19.314Z,21.80
2018-05-12T10:35:45.531Z,21.50
2018-05-12T10:38:12.502Z,20.40
2018-05-12T10:40:38.714Z,20.30
2018-05-12T10:43:05.670Z,20.70
2018-05-12T10:45:32.609Z,20.50
2018-05-12T10:47:58.789Z,20.50
2018-05-12T10:50:25.031Z,20.70
2018-05-12T10:52:51.208Z,20.50
2018-05-12T10:55:18.143Z,20.40
2018-05-12T10:57:44.357Z,20.40
2018-05-12T11:00:10.560Z,20.40
2018-05-12T11:02:36.773Z,20.50
2018-05-12T11:05:03.721Z,20.50
2018-05-12T11:07:29.906Z,20.50
2018-05-12T11:09:56.116Z,20.20
2018-05-12T11:12:22.302Z,20.20
2018-05-12T11:14:48.505Z,20.20
2018-05-12T11:17:14.702Z,20.60
2018-05-12T11:19:40.891Z,20.60
2018-05-12T11:22:07.077Z,20.60
2018-05-12T11:24:33.299Z,20.40
2018-05-12T11:26:59.522Z,20.10
2018-05-12T11:29:25.753Z,20.40
2018-05-12T11:31:52.726Z,20.20
2018-05-12T11:34:18.965Z,20.10
2018-05-12T11:36:45.205Z,20.40
2018-05-12T11:39:11.376Z,20.00
2018-05-12T11:41:37.586Z,19.90
2018-05-12T11:44:03.782Z,19.80
2018-05-12T11:46:29.975Z,20.00
2018-05-12T11:48:56.178Z,19.80
2018-05-12T11:51:22.393Z,19.40
2018-05-12T11:53:48.581Z,19.30
2018-05-12T11:56:14.806Z,19.40
2018-05-12T11:58:40.997Z,19.60
2018-05-12T12:01:07.245Z,19.90
2018-05-12T12:03:33.444Z,20.20
2018-05-12T12:05:59.669Z,20.40
2018-05-12T12:08:26.640Z,20.20
2018-05-12T12:10:52.830Z,20.10
2018-05-12T12:13:19.030Z,19.70
2018-05-12T12:15:45.212Z,19.80
2018-05-12T12:18:11.453Z,19.80
2018-05-12T12:20:37.681Z,19.80
2018-05-12T12:23:04.634Z,20.10
2018-05-12T12:25:31.561Z,20.00
2018-05-12T12:27:57.789Z,20.00
2018-05-12T12:30:23.994Z,20.10
2018-05-12T12:32:50.228Z,20.80
2018-05-12T12:35:16.433Z,20.60
2018-05-12T12:37:42.771Z,21.10
2018-05-12T12:40:08.982Z,21.50
2018-05-12T12:42:35.918Z,21.50
2018-05-12T12:45:02.953Z,20.60
2018-05-12T12:47:29.806Z,20.00
2018-05-12T12:49:56.021Z,19.90
2018-05-12T12:52:22.198Z,19.90
2018-05-12T12:54:49.138Z,20.40
2018-05-12T12:57:16.125Z,20.70
2018-05-12T12:59:42.329Z,20.60
2018-05-12T13:02:09.249Z,20.10
2018-05-12T13:04:35.491Z,20.00
2018-05-12T13:07:01.694Z,19.90
2018-05-12T13:09:27.906Z,19.80
2018-05-12T13:11:54.109Z,20.10
2018-05-12T13:14:21.071Z,20.40
2018-05-12T13:16:47.274Z,20.40
2018-05-12T13:19:13.476Z,20.60
2018-05-12T13:21:39.779Z,20.70
2018-05-12T13:24:05.891Z,20.70
2018-05-12T13:26:32.866Z,20.20
2018-05-12T13:28:59.333Z,20.10
2018-05-12T13:31:25.590Z,20.20
2018-05-12T13:33:51.807Z,20.10
2018-05-12T13:36:18.018Z,19.90
2018-05-12T13:38:44.329Z,20.00
2018-05-12T13:41:11.272Z,19.60
2018-05-12T13:43:38.230Z,19.20
2018-05-12T13:46:04.429Z,19.10
2018-05-12T13:48:30.621Z,19.10
2018-05-12T13:50:56.862Z,19.20
2018-05-12T13:53:23.079Z,19.20
2018-05-12T13:55:49.381Z,19.20
2018-05-12T13:58:15.490Z,19.30
2018-05-12T14:00:41.685Z,19.60
2018-05-12T14:03:07.916Z,20.20
2018-05-12T14:05:34.117Z,20.40
2018-05-12T14:08:01.122Z,20.50
2018-05-12T14:10:27.323Z,20.50
2018-05-12T14:12:53.513Z,20.30
2018-05-12T14:15:19.718Z,20.10
2018-05-12T14:17:45.915Z,20.10
2018-05-12T14:20:12.169Z,19.80
2018-05-12T14:22:38.369Z,19.60
2018-05-12T14:25:05.342Z,19.50
2018-05-12T14:27:31.556Z,19.50
2018-05-12T14:29:58.502Z,19.50
2018-05-12T14:32:25.569Z,19.20
2018-05-12T14:34:51.757Z,19.20
2018-05-12T14:37:17.948Z,19.20
2018-05-12T14:39:44.285Z,19.50
2018-05-12T14:42:10.474Z,19.50
2018-05-12T14:44:37.450Z,19.30
2018-05-12T14:47:03.658Z,19.20
2018-05-12T14:49:30.608Z,19.30
2018-05-12T14:51:57.538Z,19.70
2018-05-12T14:54:23.751Z,19.60
2018-05-12T14:56:49.961Z,19.60
2018-05-12T14:59:16.141Z,19.20
2018-05-12T15:01:42.362Z,19.10
2018-05-12T15:04:08.559Z,18.90
2018-05-12T15:06:34.806Z,18.70
2018-05-12T15:09:01.004Z,18.90
2018-05-12T15:11:27.236Z,18.70
2018-05-12T15:13:54.187Z,18.50
2018-05-12T15:16:21.159Z,18.50
2018-05-12T15:18:47.341Z,18.40
2018-05-12T15:21:13.556Z,18.50
2018-05-12T15:23:39.760Z,18.60
2018-05-12T15:26:05.969Z,18.60
2018-05-12T15:28:32.169Z,18.70
2018-05-12T15:30:58.398Z,18.80
2018-05-12T15:33:24.573Z,19.00
2018-05-12T15:35:51.549Z,19.40
2018-05-12T15:38:17.750Z,19.30
2018-05-12T15:40:44.701Z,19.00
2018-05-12T15:43:10.945Z,18.90
2018-05-12T15:45:37.133Z,18.90
2018-05-12T15:48:03.317Z,18.90
2018-05-12T15:50:29.542Z,18.70
2018-05-12T15:52:56.490Z,18.40
2018-05-12T15:55:22.706Z,18.40
2018-05-12T15:57:49.664Z,18.30
2018-05-12T16:00:16.608Z,18.30
2018-05-12T16:02:43.581Z,18.20
2018-05-12T16:05:09.765Z,18.20
2018-05-12T16:07:35.960Z,18.20
2018-05-12T16:10:02.187Z,18.10
2018-05-12T16:12:28.368Z,18.10
2018-05-12T16:14:54.581Z,18.00
2018-05-12T16:17:20.778Z,18.10
2018-05-12T16:19:46.998Z,18.20
2018-05-12T16:22:13.930Z,18.40
2018-05-12T16:24:40.152Z,18.30
2018-05-12T16:27:06.361Z,18.60
2018-05-12T16:29:32.578Z,18.90
2018-05-12T16:31:58.802Z,19.00
2018-05-12T16:34:25.027Z,19.10
2018-05-12T16:36:51.225Z,19.30
2018-05-12T16:39:17.426Z,19.30
2018-05-12T16:41:43.641Z,19.10
2018-05-12T16:44:09.826Z,19.00
2018-05-12T16:46:36.033Z,19.20
2018-05-12T16:49:02.234Z,19.40
2018-05-12T16:51:28.474Z,19.30
2018-05-12T16:53:54.683Z,19.00
2018-05-12T16:56:21.626Z,18.70
2018-05-12T16:58:48.572Z,18.40
2018-05-12T17:01:15.489Z,18.20
2018-05-12T17:03:41.673Z,18.20
2018-05-12T17:06:07.878Z,18.40
2018-05-12T17:08:34.103Z,18.30
2018-05-12T17:11:00.285Z,18.30
2018-05-12T17:13:26.518Z,18.30
2018-05-12T17:15:52.737Z,18.30
2018-05-12T17:18:18.950Z,18.40
2018-05-12T17:20:45.869Z,18.20
2018-05-12T17:23:12.098Z,18.10
2018-05-12T17:25:38.306Z,18.20
2018-05-12T17:28:04.499Z,18.30
2018-05-12T17:30:31.459Z,18.70
2018-05-12T17:32:58.429Z,19.00
2018-05-12T17:35:24.648Z,18.90
2018-05-12T17:37:50.870Z,18.90
2018-05-12T17:40:17.798Z,18.60
2018-05-12T17:42:44.034Z,18.50
2018-05-12T17:45:10.243Z,18.50
2018-05-12T17:47:36.447Z,18.40
2018-05-12T17:50:02.788Z,18.40
2018-05-12T17:52:28.889Z,18.40
2018-05-12T17:54:55.822Z,18.50
2018-05-12T17:57:22.029Z,18.50
2018-05-12T17:59:48.970Z,18.60
2018-05-12T18:02:15.956Z,18.60
2018-05-12T18:04:42.173Z,18.60
2018-05-12T18:07:08.360Z,18.60
2018-05-12T18:09:34.549Z,18.50
2018-05-12T18:12:00.759Z,18.40
2018-05-12T18:14:26.986Z,18.10
2018-05-12T18:16:53.196Z,17.90
2018-05-12T18:19:19.423Z,17.50
2018-05-12T18:21:45.642Z,17.50
2018-05-12T18:24:12.567Z,17.10
2018-05-12T18:26:38.768Z,17.10
2018-05-12T18:29:04.979Z,17.20
2018-05-12T18:31:31.185Z,17.20
2018-05-12T18:33:58.128Z,16.90
2018-05-12T18:36:25.093Z,16.70
2018-05-12T18:38:51.298Z,16.70
2018-05-12T18:41:18.260Z,16.50
2018-05-12T18:43:45.476Z,16.20
2018-05-12T18:46:11.686Z,16.20
2018-05-12T18:48:37.890Z,16.10
2018-05-12T18:51:04.842Z,15.90
2018-05-12T18:53:31.793Z,15.70
2018-05-12T18:55:58.739Z,15.60
2018-05-12T18:58:25.677Z,15.40
2018-05-12T19:00:52.619Z,15.30
2018-05-12T19:03:18.825Z,15.20
2018-05-12T19:05:44.987Z,15.10
2018-05-12T19:08:11.161Z,15.00
2018-05-12T19:10:37.347Z,14.80
2018-05-12T19:13:03.531Z,14.80
2018-05-12T19:15:29.865Z,14.70
2018-05-12T19:17:55.929Z,14.60
2018-05-12T19:20:22.150Z,14.50
2018-05-12T19:22:48.327Z,14.50
2018-05-12T19:25:15.245Z,14.30
2018-05-12T19:27:41.405Z,14.20
2018-05-12T19:30:07.598Z,14.20
2018-05-12T19:32:33.782Z,14.10
2018-05-12T19:35:00.014Z,14.10
2018-05-12T19:37:26.925Z,13.90
2018-05-12T19:39:53.110Z,13.80
2018-05-12T19:42:19.290Z,13.70
2018-05-12T19:44:45.898Z,13.50
2018-05-12T19:47:12.085Z,13.30
2018-05-12T19:49:38.263Z,13.20
2018-05-12T19:52:04.458Z,13.10
2018-05-12T19:54:30.625Z,12.90
2018-05-12T19:56:56.924Z,12.70
2018-05-12T19:59:23.031Z,12.60
2018-05-12T20:01:49.205Z,12.50
2018-05-12T20:04:16.125Z,12.30
2018-05-12T20:06:42.294Z,12.30
2018-05-12T20:09:09.220Z,12.20
2018-05-12T20:11:35.394Z,12.10
2018-05-12T20:14:01.561Z,12.20
2018-05-12T20:16:27.756Z,12.10
2018-05-12T20:18:53.934Z,12.00
2018-05-12T20:21:20.092Z,12.00
2018-05-12T20:23:47.021Z,11.90
2018-05-12T20:26:13.207Z,11.80
2018-05-12T20:28:39.372Z,11.80
2018-05-12T20:31:05.650Z,11.80
2018-05-12T20:33:31.769Z,11.90
2018-05-12T20:35:58.688Z,11.80
2018-05-12T20:38:24.872Z,11.80
2018-05-12T20:40:51.058Z,11.80
2018-05-12T20:43:17.245Z,11.80
2018-05-12T20:45:43.679Z,11.60
2018-05-12T20:48:09.845Z,11.50
2018-05-12T20:50:36.033Z,11.50
2018-05-12T20:53:02.212Z,11.30
2018-05-12T20:55:28.393Z,11.20
2018-05-12T20:57:55.310Z,11.10
2018-05-12T21:00:21.496Z,11.00
2018-05-12T21:02:47.673Z,11.00
2018-05-12T21:05:13.860Z,11.00
2018-05-12T21:07:40.020Z,10.90
2018-05-12T21:10:06.193Z,10.80
2018-05-12T21:12:33.110Z,10.70
2018-05-12T21:14:59.302Z,10.60
2018-05-12T21:17:25.468Z,10.60
2018-05-12T21:19:51.642Z,10.50
2018-05-12T21:22:18.628Z,10.50
2018-05-12T21:24:45.502Z,10.50
2018-05-12T21:27:11.673Z,10.40
2018-05-12T21:29:38.598Z,10.50
2018-05-12T21:32:04.779Z,10.40
2018-05-12T21:34:30.954Z,10.40
2018-05-12T21:36:57.134Z,10.30
2018-05-12T21:39:23.321Z,10.20
2018-05-12T21:41:49.485Z,10.10
2018-05-12T21:44:16.394Z,9.90
2018-05-12T21:46:42.594Z,9.80
2018-05-12T21:49:08.779Z,9.90
2018-05-12T21:51:35.086Z,9.80
2018-05-12T21:54:01.221Z,9.80
2018-05-12T21:56:27.396Z,9.80
2018-05-12T21:58:54.402Z,9.60
2018-05-12T22:01:21.279Z,9.50
2018-05-12T22:03:47.440Z,9.50
2018-05-12T22:06:14.368Z,9.50
2018-05-12T22:08:40.537Z,9.40
2018-05-12T22:11:06.706Z,9.50
2018-05-12T22:13:32.901Z,9.40
2018-05-12T22:15:59.073Z,9.30
2018-05-12T22:18:25.252Z,9.20
2018-05-12T22:20:52.161Z,9.20
2018-05-12T22:23:18.353Z,9.10
2018-05-12T22:25:44.517Z,9.20
2018-05-12T22:28:10.689Z,9.20
2018-05-12T22:30:37.610Z,9.00
2018-05-12T22:33:03.777Z,9.00
2018-05-12T22:35:30.722Z,9.00
2018-05-12T22:37:57.627Z,9.10
2018-05-12T22:40:23.819Z,9.00
2018-05-12T22:42:49.984Z,9.10
2018-05-12T22:45:16.145Z,9.10
2018-05-12T22:47:42.345Z,9.00
2018-05-12T22:50:08.514Z,9.00
2018-05-12T22:52:34.681Z,9.00
2018-05-12T22:55:00.870Z,9.00
2018-05-12T22:57:27.033Z,9.00
2018-05-12T22:59:53.979Z,9.00
2018-05-12T23:02:20.166Z,8.90
2018-05-12T23:04:46.341Z,8.90
2018-05-12T23:07:13.269Z,8.70
2018-05-12T23:09:39.441Z,8.70
2018-05-12T23:12:05.633Z,8.60
2018-05-12T23:14:31.814Z,8.50
2018-05-12T23:16:57.974Z,8.50
2018-05-12T23:19:24.161Z,8.40
2018-05-12T23:21:51.072Z,8.30
2018-05-12T23:24:17.261Z,8.20
2018-05-12T23:26:43.426Z,8.30
2018-05-12T23:29:10.343Z,8.20
2018-05-12T23:31:36.508Z,8.10
2018-05-12T23:34:02.703Z,8.20
2018-05-12T23:36:28.885Z,8.30
2018-05-12T23:38:55.818Z,8.20
2018-05-12T23:41:22.744Z,8.10
2018-05-12T23:43:48.913Z,8.10
2018-05-12T23:46:15.074Z,8.20
2018-05-12T23:48:42.164Z,8.20
2018-05-12T23:51:08.334Z,8.10
2018-05-12T23:53:34.495Z,8.20
2018-05-12T23:56:01.416Z,8.20
2018-05-12T23:58:27.574Z,8.10
